createdAt,value
2023-03-12T00:00:14.368Z,100829.06
2023-03-12T00:02:42.267Z,100821.13
2023-03-12T00:05:11.021Z,100834.56
2023-03-12T00:07:39.591Z,100824.69
2023-03-12T00:10:08.383Z,100825.56
2023-03-12T00:12:36.610Z,100827.41
2023-03-12T00:15:05.082Z,100825.66
2023-03-12T00:17:36.670Z,100817.47
2023-03-12T00:20:06.736Z,100820.25
2023-03-12T00:22:34.565Z,100820.25
2023-03-12T00:25:02.378Z,100824.69
2023-03-12T00:27:30.229Z,100818.50
2023-03-12T00:29:58.013Z,100810.38
2023-03-12T00:32:26.184Z,100809.44
2023-03-12T00:34:57.163Z,100809.44
2023-03-12T00:37:24.954Z,100807.69
2023-03-12T00:39:52.824Z,100795.97
2023-03-12T00:42:20.816Z,100798.59
2023-03-12T00:44:48.741Z,100793.28
2023-03-12T00:47:16.525Z,100790.50
2023-03-12T00:49:44.319Z,100788.75
2023-03-12T00:52:13.527Z,100785.06
2023-03-12T00:54:41.509Z,100785.94
2023-03-12T00:57:09.384Z,100793.03
2023-03-12T00:59:40.367Z,100788.47
2023-03-12T01:02:09.354Z,100779.50
2023-03-12T01:04:37.311Z,100776.00
2023-03-12T01:07:05.422Z,100772.16
2023-03-12T01:09:34.853Z,100773.03
2023-03-12T01:12:02.690Z,100771.28
2023-03-12T01:14:30.489Z,100776.63
2023-03-12T01:16:58.366Z,100768.50
2023-03-12T01:19:26.216Z,100772.03
2023-03-12T01:21:54.060Z,100774.75
2023-03-12T01:24:21.811Z,100766.63
2023-03-12T01:26:51.012Z,100758.44
2023-03-12T01:29:18.948Z,100763.09
2023-03-12T01:31:46.800Z,100748.69
2023-03-12T01:34:14.678Z,100762.09
2023-03-12T01:36:42.798Z,100757.69
2023-03-12T01:39:10.572Z,100749.56
2023-03-12T01:41:38.725Z,100755.94
2023-03-12T01:44:08.742Z,100747.81
2023-03-12T01:46:38.369Z,100740.66
2023-03-12T01:49:15.582Z,100734.38
2023-03-12T01:51:46.964Z,100728.97
2023-03-12T01:54:18.209Z,100724.41
2023-03-12T01:56:47.274Z,100726.34
2023-03-12T01:59:23.454Z,100723.53
2023-03-12T02:01:51.979Z,100729.13
2023-03-12T02:04:23.372Z,100730.00
2023-03-12T02:06:57.646Z,100726.50
2023-03-12T02:09:25.878Z,100730.22
2023-03-12T02:11:53.722Z,100732.03
2023-03-12T02:14:23.024Z,100726.63
2023-03-12T02:16:51.086Z,100709.59
2023-03-12T02:19:27.022Z,100714.94
2023-03-12T02:21:54.916Z,100704.38
2023-03-12T02:24:31.934Z,100701.59
2023-03-12T02:27:02.215Z,100699.84
2023-03-12T02:29:33.036Z,100701.75
2023-03-12T02:32:04.212Z,100707.28
2023-03-12T02:34:32.185Z,100702.84
2023-03-12T02:37:00.013Z,100709.28
2023-03-12T02:39:28.518Z,100707.44
2023-03-12T02:41:58.749Z,100708.41
2023-03-12T02:44:31.220Z,100717.41
2023-03-12T02:47:02.389Z,100713.91
2023-03-12T02:49:32.026Z,100710.25
2023-03-12T02:52:01.631Z,100697.75
2023-03-12T02:54:30.746Z,100697.69
2023-03-12T02:56:58.989Z,100687.72
2023-03-12T02:59:29.780Z,100695.84
2023-03-12T03:02:01.760Z,100675.16
2023-03-12T03:04:30.989Z,100672.38
2023-03-12T03:06:58.835Z,100668.81
2023-03-12T03:09:26.725Z,100669.66
2023-03-12T03:11:54.797Z,100669.59
2023-03-12T03:14:24.332Z,100660.69
2023-03-12T03:16:57.725Z,100665.91
2023-03-12T03:19:25.853Z,100675.00
2023-03-12T03:21:53.610Z,100665.91
2023-03-12T03:24:21.584Z,100658.84
2023-03-12T03:26:49.470Z,100661.47
2023-03-12T03:29:17.459Z,100646.09
2023-03-12T03:31:45.414Z,100654.13
2023-03-12T03:34:17.221Z,100653.19
2023-03-12T03:36:45.092Z,100656.94
2023-03-12T03:39:15.699Z,100653.25
2023-03-12T03:41:43.677Z,100652.41
2023-03-12T03:44:11.707Z,100653.34
2023-03-12T03:46:40.574Z,100655.97
2023-03-12T03:49:11.037Z,100649.69
2023-03-12T03:51:42.965Z,100655.88
2023-03-12T03:54:14.197Z,100659.63
2023-03-12T03:56:47.549Z,100656.72
2023-03-12T03:59:15.630Z,100648.81
2023-03-12T04:01:44.307Z,100659.44
2023-03-12T04:04:12.035Z,100658.59
2023-03-12T04:06:41.939Z,100655.88
2023-03-12T04:09:09.841Z,100654.03
2023-03-12T04:11:39.519Z,100642.34
2023-03-12T04:14:09.125Z,100644.19
2023-03-12T04:16:39.416Z,100642.25
2023-03-12T04:19:07.280Z,100645.81
2023-03-12T04:21:35.052Z,100636.81
2023-03-12T04:24:04.691Z,100636.75
2023-03-12T04:26:35.082Z,100633.25
2023-03-12T04:29:04.257Z,100636.81
2023-03-12T04:31:32.471Z,100634.13
2023-03-12T04:34:00.626Z,100632.38
2023-03-12T04:36:28.682Z,100637.91
2023-03-12T04:38:57.437Z,100626.13
2023-03-12T04:41:31.352Z,100623.41
2023-03-12T04:44:05.045Z,100624.25
2023-03-12T04:46:35.129Z,100619.84
2023-03-12T04:49:03.644Z,100626.88
2023-03-12T04:51:33.540Z,100628.63
2023-03-12T04:54:05.426Z,100630.38
2023-03-12T04:56:35.662Z,100631.16
2023-03-12T04:59:03.834Z,100623.91
2023-03-12T05:01:33.161Z,100614.81
2023-03-12T05:04:04.053Z,100610.28
2023-03-12T05:06:32.175Z,100604.88
2023-03-12T05:09:00.145Z,100607.38
2023-03-12T05:11:28.076Z,100605.63
2023-03-12T05:13:57.602Z,100609.13
2023-03-12T05:16:25.368Z,100584.94
2023-03-12T05:18:53.216Z,100601.97
2023-03-12T05:21:24.816Z,100585.63
2023-03-12T05:23:55.555Z,100576.00
2023-03-12T05:26:27.907Z,100566.78
2023-03-12T05:29:05.320Z,100546.97
2023-03-12T05:31:35.514Z,100548.16
2023-03-12T05:34:05.808Z,100563.50
2023-03-12T05:36:37.361Z,100551.03
2023-03-12T05:39:06.038Z,100566.50
2023-03-12T05:41:35.723Z,100559.34
2023-03-12T05:44:16.014Z,100549.50
2023-03-12T05:46:46.253Z,100559.72
2023-03-12T05:49:14.046Z,100553.34
2023-03-12T05:51:43.374Z,100538.09
2023-03-12T05:54:11.781Z,100526.41
2023-03-12T05:56:40.132Z,100539.94
2023-03-12T05:59:10.615Z,100531.81
2023-03-12T06:01:41.953Z,100537.13
2023-03-12T06:04:10.235Z,100527.28
2023-03-12T06:06:38.855Z,100525.44
2023-03-12T06:09:07.184Z,100505.63
2023-03-12T06:11:35.491Z,100490.38
2023-03-12T06:14:04.044Z,100500.22
2023-03-12T06:16:32.535Z,100510.09
2023-03-12T06:19:03.941Z,100509.22
2023-03-12T06:21:34.427Z,100517.41
2023-03-12T06:24:03.327Z,100510.16
2023-03-12T06:26:38.265Z,100512.13
2023-03-12T06:29:06.058Z,100529.00
2023-03-12T06:31:35.509Z,100513.75
2023-03-12T06:34:05.893Z,100507.38
2023-03-12T06:36:33.604Z,100512.88
2023-03-12T06:39:01.355Z,100511.13
2023-03-12T06:41:29.112Z,100522.06
2023-03-12T06:43:56.920Z,100515.75
2023-03-12T06:46:25.704Z,100514.03
2023-03-12T06:48:53.663Z,100513.16
2023-03-12T06:51:22.776Z,100520.38
2023-03-12T06:53:50.589Z,100527.63
2023-03-12T06:56:18.317Z,100524.06
2023-03-12T06:58:46.264Z,100516.03
2023-03-12T07:01:14.870Z,100529.56
2023-03-12T07:03:42.846Z,100516.91
2023-03-12T07:06:15.118Z,100516.03
2023-03-12T07:08:44.729Z,100523.38
2023-03-12T07:11:13.560Z,100520.66
2023-03-12T07:13:41.557Z,100518.81
2023-03-12T07:16:09.718Z,100525.09
2023-03-12T07:18:37.661Z,100526.94
2023-03-12T07:21:06.159Z,100517.00
2023-03-12T07:23:33.939Z,100510.63
2023-03-12T07:26:05.488Z,100506.88
2023-03-12T07:28:33.358Z,100506.97
2023-03-12T07:31:02.134Z,100498.75
2023-03-12T07:33:30.106Z,100505.03
2023-03-12T07:35:58.248Z,100500.50
2023-03-12T07:38:27.098Z,100502.16
2023-03-12T07:40:56.389Z,100501.19
2023-03-12T07:43:26.313Z,100505.63
2023-03-12T07:45:55.555Z,100502.94
2023-03-12T07:48:23.433Z,100503.81
2023-03-12T07:50:52.047Z,100501.97
2023-03-12T07:53:19.956Z,100505.53
2023-03-12T07:55:48.928Z,100498.22
2023-03-12T07:58:17.421Z,100506.31
2023-03-12T08:00:46.868Z,100499.81
2023-03-12T08:03:14.995Z,100499.00
2023-03-12T08:05:43.004Z,100501.69
2023-03-12T08:08:10.986Z,100504.28
2023-03-12T08:10:38.930Z,100501.56
2023-03-12T08:13:06.837Z,100506.22
2023-03-12T08:15:34.922Z,100518.59
2023-03-12T08:18:04.121Z,100502.34
2023-03-12T08:20:32.114Z,100496.84
2023-03-12T08:22:59.815Z,100494.06
2023-03-12T08:25:27.576Z,100503.03
2023-03-12T08:27:55.612Z,100515.47
2023-03-12T08:30:23.749Z,100526.22
2023-03-12T08:32:51.633Z,100510.84
2023-03-12T08:35:20.757Z,100512.50
2023-03-12T08:37:48.529Z,100512.50
2023-03-12T08:40:16.412Z,100513.28
2023-03-12T08:42:45.536Z,100498.75
2023-03-12T08:45:14.077Z,100502.22
2023-03-12T08:47:41.979Z,100490.53
2023-03-12T08:50:11.252Z,100503.88
2023-03-12T08:52:40.437Z,100491.22
2023-03-12T08:55:08.903Z,100484.06
2023-03-12T08:57:36.697Z,100483.97
2023-03-12T09:00:06.033Z,100489.28
2023-03-12T09:02:33.755Z,100492.97
2023-03-12T09:05:01.481Z,100498.38
2023-03-12T09:07:29.254Z,100494.81
2023-03-12T09:09:58.690Z,100498.38
2023-03-12T09:12:26.560Z,100495.75
2023-03-12T09:15:03.882Z,100497.50
2023-03-12T09:17:32.493Z,100497.59
2023-03-12T09:20:00.308Z,100504.75
2023-03-12T09:22:30.876Z,100501.97
2023-03-12T09:25:00.004Z,100498.28
2023-03-12T09:27:27.702Z,100487.47
2023-03-12T09:30:00.930Z,100497.28
2023-03-12T09:32:29.373Z,100495.47
2023-03-12T09:34:57.177Z,100498.06
2023-03-12T09:37:25.103Z,100499.81
2023-03-12T09:39:53.298Z,100506.09
2023-03-12T09:42:26.434Z,100488.66
2023-03-12T09:44:57.172Z,100494.97
2023-03-12T09:47:30.312Z,100496.69
2023-03-12T09:50:02.128Z,100498.44
2023-03-12T09:52:34.037Z,100507.34
2023-03-12T09:55:08.001Z,100501.84
2023-03-12T09:57:37.335Z,100507.16
2023-03-12T10:00:07.318Z,100520.56
2023-03-12T10:03:09.584Z,100524.03
2023-03-12T10:05:43.058Z,100507.91
2023-03-12T10:08:24.746Z,100496.09
2023-03-12T10:10:59.953Z,100501.59
2023-03-12T10:13:42.067Z,100515.06
2023-03-12T10:16:27.194Z,100515.16
2023-03-12T10:19:05.069Z,100506.16
2023-03-12T10:21:40.429Z,100516.97
2023-03-12T10:24:31.580Z,100504.31
2023-03-12T10:27:01.789Z,100502.59
2023-03-12T10:29:34.099Z,100516.00
2023-03-12T10:32:06.835Z,100508.03
2023-03-12T10:34:40.362Z,100526.75
2023-03-12T10:37:18.234Z,100523.84
2023-03-12T10:39:47.098Z,100517.56
2023-03-12T10:42:17.961Z,100523.63
2023-03-12T10:44:50.099Z,100524.50
2023-03-12T10:47:29.224Z,100526.16
2023-03-12T10:50:13.993Z,100525.09
2023-03-12T10:52:42.277Z,100528.66
2023-03-12T10:55:20.499Z,100529.31
2023-03-12T10:57:49.001Z,100530.19
2023-03-12T11:00:22.966Z,100534.31
2023-03-12T11:03:00.470Z,100526.88
2023-03-12T11:05:31.256Z,100530.38
2023-03-12T11:08:01.826Z,100524.94
2023-03-12T11:10:43.104Z,100528.13
2023-03-12T11:13:30.281Z,100529.94
2023-03-12T11:16:01.216Z,100528.78
2023-03-12T11:18:33.040Z,100528.56
2023-03-12T11:21:19.430Z,100518.31
2023-03-12T11:24:04.276Z,100518.41
2023-03-12T11:26:35.744Z,100523.50
2023-03-12T11:29:07.912Z,100509.69
2023-03-12T11:31:40.302Z,100504.13
2023-03-12T11:34:15.731Z,100503.94
2023-03-12T11:36:52.688Z,100505.47
2023-03-12T11:39:31.053Z,100509.59
2023-03-12T11:42:21.311Z,100512.13
2023-03-12T11:45:01.211Z,100506.56
2023-03-12T11:47:46.405Z,100513.44
2023-03-12T11:50:26.864Z,100514.16
2023-03-12T11:53:09.818Z,100515.72
2023-03-12T11:55:52.647Z,100511.16
2023-03-12T11:58:55.051Z,100514.75
2023-03-12T12:01:32.859Z,100518.75
2023-03-12T12:04:33.378Z,100509.56
2023-03-12T12:07:11.433Z,100513.78
2023-03-12T12:09:47.554Z,100504.47
2023-03-12T12:12:26.533Z,100506.84
2023-03-12T12:15:10.116Z,100499.38
2023-03-12T12:17:50.237Z,100504.56
2023-03-12T12:20:26.827Z,100507.09
2023-03-12T12:23:11.128Z,100502.19
2023-03-12T12:25:53.646Z,100505.56
2023-03-12T12:28:36.125Z,100507.06
2023-03-12T12:31:24.229Z,100500.56
2023-03-12T12:34:07.703Z,100501.03
2023-03-12T12:36:37.541Z,100491.81
2023-03-12T12:39:14.458Z,100483.22
2023-03-12T12:41:48.237Z,100483.03
2023-03-12T12:44:19.941Z,100472.69
2023-03-12T12:46:51.452Z,100474.13
2023-03-12T12:49:26.233Z,100462.81
2023-03-12T12:51:59.426Z,100468.75
2023-03-12T12:54:36.027Z,100461.91
2023-03-12T12:57:12.966Z,100460.50
2023-03-12T12:59:44.638Z,100454.50
2023-03-12T13:02:18.919Z,100450.97
2023-03-12T13:04:47.606Z,100447.66
2023-03-12T13:07:34.286Z,100430.47
2023-03-12T13:10:09.122Z,100434.94
2023-03-12T13:12:44.405Z,100428.69
2023-03-12T13:15:39.982Z,100431.34
2023-03-12T13:18:22.950Z,100421.38
2023-03-12T13:21:15.031Z,100423.38
2023-03-12T13:23:52.130Z,100425.19
2023-03-12T13:26:27.044Z,100416.28
2023-03-12T13:29:13.137Z,100408.25
2023-03-12T13:31:43.081Z,100406.91
2023-03-12T13:34:42.355Z,100406.19
2023-03-12T13:37:21.258Z,100406.28
2023-03-12T13:39:49.178Z,100406.78
2023-03-12T13:42:45.533Z,100400.09
2023-03-12T13:45:28.694Z,100402.94
2023-03-12T13:47:59.026Z,100394.66
2023-03-12T13:50:28.277Z,100401.44
2023-03-12T13:53:03.973Z,100410.59
2023-03-12T13:55:33.919Z,100391.00
2023-03-12T13:58:09.402Z,100394.13
2023-03-12T14:00:42.635Z,100384.69
2023-03-12T14:03:16.610Z,100375.28
2023-03-12T14:05:49.991Z,100373.91
2023-03-12T14:08:34.310Z,100377.09
2023-03-12T14:11:20.348Z,100383.03
2023-03-12T14:14:10.959Z,100382.50
2023-03-12T14:16:41.957Z,100380.38
2023-03-12T14:19:14.309Z,100375.28
2023-03-12T14:21:45.323Z,100371.56
2023-03-12T14:24:23.639Z,100379.13
2023-03-12T14:26:51.729Z,100391.63
2023-03-12T14:29:26.484Z,100383.94
2023-03-12T14:31:57.488Z,100389.22
2023-03-12T14:34:27.865Z,100388.09
2023-03-12T14:37:02.133Z,100401.19
2023-03-12T14:39:34.446Z,100406.66
2023-03-12T14:42:05.033Z,100401.06
2023-03-12T14:44:36.601Z,100404.41
2023-03-12T14:47:07.686Z,100401.41
2023-03-12T14:49:42.368Z,100417.66
2023-03-12T14:52:12.914Z,100418.38
2023-03-12T14:54:40.926Z,100419.25
2023-03-12T14:57:14.632Z,100419.88
2023-03-12T14:59:53.879Z,100423.31
2023-03-12T15:02:22.681Z,100425.16
2023-03-12T15:04:54.595Z,100430.38
2023-03-12T15:07:28.206Z,100427.50
2023-03-12T15:09:56.344Z,100439.16
2023-03-12T15:12:26.416Z,100433.44
2023-03-12T15:15:01.361Z,100437.63
2023-03-12T15:17:31.845Z,100421.97
2023-03-12T15:20:00.395Z,100435.38
2023-03-12T15:22:28.806Z,100423.34
2023-03-12T15:24:56.729Z,100434.81
2023-03-12T15:27:34.662Z,100437.16
2023-03-12T15:30:26.973Z,100435.31
2023-03-12T15:33:09.183Z,100428.69
2023-03-12T15:35:39.854Z,100414.06
2023-03-12T15:38:15.573Z,100420.88
2023-03-12T15:40:49.616Z,100422.44
2023-03-12T15:43:21.102Z,100426.91
2023-03-12T15:46:00.076Z,100422.91
2023-03-12T15:48:31.921Z,100426.50
2023-03-12T15:51:00.221Z,100428.09
2023-03-12T15:53:31.064Z,100441.47
2023-03-12T15:56:04.683Z,100449.53
2023-03-12T15:58:34.458Z,100444.09
2023-03-12T16:01:14.030Z,100448.25
2023-03-12T16:03:45.320Z,100445.66
2023-03-12T16:06:14.540Z,100453.59
2023-03-12T16:08:46.877Z,100447.00
2023-03-12T16:11:18.181Z,100449.00
2023-03-12T16:13:48.338Z,100454.19
2023-03-12T16:16:17.920Z,100447.75
2023-03-12T16:18:46.041Z,100449.44
2023-03-12T16:21:13.873Z,100452.03
2023-03-12T16:23:41.636Z,100446.56
2023-03-12T16:26:09.425Z,100446.56
2023-03-12T16:28:37.597Z,100456.50
2023-03-12T16:31:12.002Z,100467.28
2023-03-12T16:33:41.388Z,100459.22
2023-03-12T16:36:18.258Z,100461.97
2023-03-12T16:38:46.908Z,100462.97
2023-03-12T16:41:17.184Z,100455.50
2023-03-12T16:43:48.486Z,100459.97
2023-03-12T16:46:19.671Z,100466.44
2023-03-12T16:48:52.208Z,100467.28
2023-03-12T16:51:20.923Z,100465.69
2023-03-12T16:53:58.515Z,100472.03
2023-03-12T16:56:33.438Z,100464.81
2023-03-12T16:59:06.275Z,100453.66
2023-03-12T17:01:34.986Z,100463.25
2023-03-12T17:04:04.942Z,100455.06
2023-03-12T17:06:32.857Z,100452.16
2023-03-12T17:09:01.573Z,100452.91
2023-03-12T17:11:34.686Z,100460.22
2023-03-12T17:14:04.523Z,100456.50
2023-03-12T17:16:32.741Z,100463.09
2023-03-12T17:19:00.579Z,100454.03
2023-03-12T17:21:29.931Z,100456.75
2023-03-12T17:23:57.796Z,100457.63
2023-03-12T17:26:25.641Z,100457.78
2023-03-12T17:28:53.520Z,100455.94
2023-03-12T17:31:21.452Z,100462.38
2023-03-12T17:33:49.233Z,100466.97
2023-03-12T17:36:17.019Z,100465.38
2023-03-12T17:38:46.184Z,100465.13
2023-03-12T17:41:26.075Z,100467.97
2023-03-12T17:43:58.480Z,100476.28
2023-03-12T17:46:26.484Z,100493.53
2023-03-12T17:48:54.823Z,100493.53
2023-03-12T17:51:23.223Z,100507.19
2023-03-12T17:53:52.369Z,100506.19
2023-03-12T17:56:20.324Z,100503.72
2023-03-12T17:58:48.724Z,100502.84
2023-03-12T18:01:17.572Z,100505.44
2023-03-12T18:03:45.655Z,100504.59
2023-03-12T18:06:13.856Z,100499.25
2023-03-12T18:08:41.617Z,100511.91
2023-03-12T18:11:10.829Z,100519.09
2023-03-12T18:13:40.823Z,100509.31
2023-03-12T18:16:09.145Z,100511.03
2023-03-12T18:18:37.270Z,100512.91
2023-03-12T18:21:05.972Z,100511.03
2023-03-12T18:23:33.735Z,100509.19
2023-03-12T18:26:01.543Z,100504.72
2023-03-12T18:28:30.672Z,100502.84
2023-03-12T18:30:58.546Z,100507.44
2023-03-12T18:33:26.421Z,100510.34
2023-03-12T18:35:54.718Z,100513.91
2023-03-12T18:38:22.531Z,100511.16
2023-03-12T18:40:51.305Z,100522.25
2023-03-12T18:43:21.459Z,100517.66
2023-03-12T18:45:51.217Z,100513.91
2023-03-12T18:48:19.015Z,100514.06
2023-03-12T18:50:46.845Z,100515.94
2023-03-12T18:53:14.611Z,100512.19
2023-03-12T18:55:42.381Z,100516.78
2023-03-12T18:58:10.100Z,100507.72
2023-03-12T19:00:37.902Z,100507.72
2023-03-12T19:03:07.211Z,100504.88
2023-03-12T19:05:35.377Z,100497.69
2023-03-12T19:08:03.112Z,100490.47
2023-03-12T19:10:30.992Z,100490.34
2023-03-12T19:12:59.117Z,100492.06
2023-03-12T19:15:26.938Z,100493.97
2023-03-12T19:17:55.036Z,100493.09
2023-03-12T19:20:24.437Z,100496.53
2023-03-12T19:22:52.353Z,100496.69
2023-03-12T19:25:20.437Z,100489.34
2023-03-12T19:27:48.402Z,100487.75
2023-03-12T19:30:16.905Z,100492.06
2023-03-12T19:32:44.960Z,100484.03
2023-03-12T19:35:14.215Z,100480.16
2023-03-12T19:37:43.660Z,100467.38
2023-03-12T19:40:13.299Z,100482.88
2023-03-12T19:42:41.215Z,100470.22
2023-03-12T19:45:10.120Z,100462.03
2023-03-12T19:47:37.904Z,100462.03
2023-03-12T19:50:06.726Z,100460.16
2023-03-12T19:52:34.493Z,100462.03
2023-03-12T19:55:07.858Z,100459.16
2023-03-12T19:57:35.741Z,100456.56
2023-03-12T20:00:07.179Z,100442.09
2023-03-12T20:02:35.217Z,100453.00
2023-03-12T20:05:03.174Z,100440.34
2023-03-12T20:07:31.143Z,100441.22
2023-03-12T20:09:58.880Z,100440.34
2023-03-12T20:12:28.078Z,100437.47
2023-03-12T20:14:55.872Z,100429.44
2023-03-12T20:17:23.680Z,100433.03
2023-03-12T20:19:51.569Z,100423.97
2023-03-12T20:22:19.811Z,100422.25
2023-03-12T20:24:47.623Z,100420.38
2023-03-12T20:27:15.491Z,100426.84
2023-03-12T20:29:46.117Z,100425.84
2023-03-12T20:32:14.646Z,100420.50
2023-03-12T20:34:42.475Z,100417.78
2023-03-12T20:37:10.373Z,100414.19
2023-03-12T20:39:38.272Z,100413.31
2023-03-12T20:42:06.526Z,100406.13
2023-03-12T20:44:34.332Z,100410.72
2023-03-12T20:47:03.681Z,100407.00
2023-03-12T20:49:31.534Z,100405.25
2023-03-12T20:52:00.051Z,100402.66
2023-03-12T20:54:28.389Z,100395.34
2023-03-12T20:56:56.300Z,100389.88
2023-03-12T20:59:24.119Z,100391.91
2023-03-12T21:01:51.924Z,100394.63
2023-03-12T21:04:21.220Z,100383.72
2023-03-12T21:06:51.670Z,100380.97
2023-03-12T21:09:19.801Z,100367.47
2023-03-12T21:11:47.875Z,100375.66
2023-03-12T21:14:15.833Z,100359.28
2023-03-12T21:16:43.728Z,100361.13
2023-03-12T21:19:11.519Z,100365.88
2023-03-12T21:21:40.821Z,100358.66
2023-03-12T21:24:08.905Z,100364.00
2023-03-12T21:26:37.053Z,100361.41
2023-03-12T21:29:05.374Z,100355.22
2023-03-12T21:31:33.249Z,100347.19
2023-03-12T21:34:01.021Z,100341.56
2023-03-12T21:36:29.232Z,100340.69
2023-03-12T21:38:58.399Z,100338.84
2023-03-12T21:41:26.194Z,100339.88
2023-03-12T21:43:54.007Z,100343.59
2023-03-12T21:46:24.630Z,100340.84
2023-03-12T21:48:52.683Z,100330.94
2023-03-12T21:51:22.581Z,100329.94
2023-03-12T21:53:54.047Z,100328.06
2023-03-12T21:56:25.306Z,100320.88
2023-03-12T21:58:53.218Z,100330.06
2023-03-12T22:01:21.042Z,100333.81
2023-03-12T22:03:50.155Z,100326.47
2023-03-12T22:06:18.290Z,100322.75
2023-03-12T22:08:48.052Z,100330.94
2023-03-12T22:11:17.083Z,100312.84
2023-03-12T22:13:46.420Z,100315.56
2023-03-12T22:16:15.211Z,100316.44
2023-03-12T22:18:45.882Z,100313.69
2023-03-12T22:21:16.492Z,100310.09
2023-03-12T22:23:44.342Z,100307.50
2023-03-12T22:26:12.102Z,100296.47
2023-03-12T22:28:39.980Z,100301.06
2023-03-12T22:31:10.114Z,100293.72
2023-03-12T22:33:38.602Z,100285.69
2023-03-12T22:36:08.672Z,100284.69
2023-03-12T22:38:37.675Z,100273.91
2023-03-12T22:41:17.122Z,100277.34
2023-03-12T22:43:45.513Z,100266.56
2023-03-12T22:46:16.442Z,100269.31
2023-03-12T22:48:44.800Z,100264.84
2023-03-12T22:51:13.187Z,100254.78
2023-03-12T22:53:41.030Z,100249.47
2023-03-12T22:56:10.952Z,100239.28
2023-03-12T22:58:39.147Z,100225.78
2023-03-12T23:01:09.708Z,100224.78
2023-03-12T23:03:40.690Z,100227.50
2023-03-12T23:06:10.020Z,100218.44
2023-03-12T23:08:38.412Z,100214.00
2023-03-12T23:11:07.494Z,100207.53
2023-03-12T23:13:37.244Z,100197.50
2023-03-12T23:16:07.071Z,100185.72
2023-03-12T23:18:35.635Z,100185.72
2023-03-12T23:21:07.441Z,100184.72
2023-03-12T23:23:35.883Z,100174.78
2023-03-12T23:26:03.981Z,100169.34
2023-03-12T23:28:31.933Z,100155.81
2023-03-12T23:31:01.509Z,100157.28
2023-03-12T23:33:30.697Z,100150.09
2023-03-12T23:36:00.727Z,100146.38
2023-03-12T23:38:31.289Z,100142.66
2023-03-12T23:41:02.483Z,100136.31
2023-03-12T23:43:30.354Z,100138.19
2023-03-12T23:45:59.358Z,100133.47
2023-03-12T23:48:28.093Z,100129.88
2023-03-12T23:51:04.082Z,100138.75
2023-03-12T23:53:34.086Z,100117.94
2023-03-12T23:56:03.598Z,100120.38
2023-03-12T23:58:31.442Z,100106.88
